createdAt,value
2018-10-04T00:00:36.147Z,7.50
2018-10-04T00:01:35.774Z,6.60
2018-10-04T00:02:35.720Z,6.80
2018-10-04T00:03:35.716Z,6.80
2018-10-04T00:04:35.679Z,6.30
2018-10-04T00:05:35.654Z,6.50
2018-10-04T00:06:35.718Z,6.10
2018-10-04T00:07:35.595Z,5.80
2018-10-04T00:08:35.559Z,4.80
2018-10-04T00:09:35.544Z,6.20
2018-10-04T00:10:35.493Z,5.00
2018-10-04T00:11:35.473Z,5.00
2018-10-04T00:12:35.437Z,4.30
2018-10-04T00:13:35.381Z,5.00
2018-10-04T00:14:35.369Z,4.70
2018-10-04T00:15:35.331Z,5.20
2018-10-04T00:16:35.312Z,4.30
2018-10-04T00:17:35.287Z,5.00
2018-10-04T00:18:35.444Z,5.00
2018-10-04T00:19:35.249Z,4.20
2018-10-04T00:20:35.184Z,4.00
2018-10-04T00:21:35.159Z,4.30
2018-10-04T00:22:35.122Z,4.70
2018-10-04T00:23:35.130Z,4.50
2018-10-04T00:24:35.067Z,4.40
2018-10-04T00:25:35.055Z,4.40
2018-10-04T00:26:35.029Z,4.50
2018-10-04T00:27:34.973Z,4.20
2018-10-04T00:28:34.936Z,4.30
2018-10-04T00:29:34.904Z,4.50
2018-10-04T00:30:34.892Z,4.40
2018-10-04T00:31:34.856Z,4.70
2018-10-04T00:32:34.840Z,4.80
2018-10-04T00:33:35.004Z,5.10
2018-10-04T00:34:34.760Z,5.20
2018-10-04T00:35:34.736Z,4.90
2018-10-04T00:36:34.695Z,5.60
2018-10-04T00:37:34.679Z,5.00
2018-10-04T00:38:34.655Z,5.00
2018-10-04T00:39:34.640Z,4.40
2018-10-04T00:40:34.585Z,4.70
2018-10-04T00:41:34.549Z,4.70
2018-10-04T00:42:34.819Z,4.30
2018-10-04T00:43:35.722Z,4.70
2018-10-04T00:44:34.466Z,4.70
2018-10-04T00:45:34.443Z,4.60
2018-10-04T00:46:34.395Z,4.50
2018-10-04T00:47:34.675Z,5.10
2018-10-04T00:48:34.381Z,4.60
2018-10-04T00:49:34.304Z,4.70
2018-10-04T00:50:34.501Z,4.20
2018-10-04T00:51:34.260Z,4.40
2018-10-04T00:52:34.216Z,4.30
2018-10-04T00:53:34.202Z,4.70
2018-10-04T00:54:34.193Z,5.00
2018-10-04T00:55:34.141Z,4.40
2018-10-04T00:56:34.126Z,4.40
2018-10-04T00:57:34.076Z,4.50
2018-10-04T00:58:34.076Z,4.60
2018-10-04T00:59:34.212Z,4.60
2018-10-04T01:00:33.986Z,4.60
2018-10-04T01:01:33.963Z,4.30
2018-10-04T01:02:33.934Z,4.30
2018-10-04T01:03:33.911Z,4.80
2018-10-04T01:04:33.853Z,4.40
2018-10-04T01:05:33.848Z,4.40
2018-10-04T01:06:33.826Z,4.80
2018-10-04T01:07:33.795Z,4.50
2018-10-04T01:09:33.721Z,3.60
2018-10-04T01:10:33.671Z,4.20
2018-10-04T01:11:33.645Z,4.50
2018-10-04T01:12:33.635Z,4.90
2018-10-04T01:13:33.601Z,4.80
2018-10-04T01:14:33.771Z,4.80
2018-10-04T01:15:33.540Z,4.10
2018-10-04T01:16:33.511Z,5.00
2018-10-04T01:17:33.464Z,4.80
2018-10-04T01:18:33.448Z,4.80
2018-10-04T01:19:33.403Z,4.50
2018-10-04T01:20:33.375Z,4.80
2018-10-04T01:21:33.344Z,4.40
2018-10-04T01:22:33.337Z,4.90
2018-10-04T01:23:33.312Z,4.40
2018-10-04T01:24:33.248Z,4.50
2018-10-04T01:25:33.292Z,5.00
2018-10-04T01:26:33.214Z,5.10
2018-10-04T01:27:33.170Z,5.20
2018-10-04T01:28:33.126Z,5.40
2018-10-04T01:29:33.139Z,5.00
2018-10-04T01:30:33.084Z,5.50
2018-10-04T01:31:33.090Z,5.80
2018-10-04T01:32:33.007Z,5.10
2018-10-04T01:33:32.999Z,5.20
2018-10-04T01:34:32.963Z,5.30
2018-10-04T01:35:32.933Z,4.90
2018-10-04T01:36:32.996Z,4.30
2018-10-04T01:37:32.872Z,4.90
2018-10-04T01:38:32.854Z,4.60
2018-10-04T01:39:32.840Z,4.60
2018-10-04T01:40:32.772Z,4.80
2018-10-04T01:41:32.941Z,4.30
2018-10-04T01:42:32.737Z,4.70
2018-10-04T01:43:33.083Z,4.80
2018-10-04T01:44:32.915Z,4.70
2018-10-04T01:45:32.612Z,5.20
2018-10-04T01:46:32.598Z,4.50
2018-10-04T01:47:32.860Z,5.70
2018-10-04T01:48:32.541Z,4.80
2018-10-04T01:49:32.529Z,5.20
2018-10-04T01:50:32.458Z,4.70
2018-10-04T01:51:32.448Z,4.80
2018-10-04T01:52:32.411Z,4.80
2018-10-04T01:53:32.390Z,5.30
2018-10-04T01:54:32.378Z,5.30
2018-10-04T01:55:32.331Z,5.10
2018-10-04T01:56:32.363Z,4.70
2018-10-04T01:57:32.248Z,5.10
2018-10-04T01:58:32.245Z,4.90
2018-10-04T01:59:32.196Z,4.80
2018-10-04T02:00:32.174Z,5.80
2018-10-04T02:01:32.159Z,4.90
2018-10-04T02:02:32.116Z,5.00
2018-10-04T02:03:32.085Z,5.10
2018-10-04T02:04:32.040Z,5.00
2018-10-04T02:05:32.003Z,5.30
2018-10-04T02:06:32.029Z,5.00
2018-10-04T02:07:31.961Z,5.10
2018-10-04T02:08:31.934Z,5.10
2018-10-04T02:09:31.906Z,4.80
2018-10-04T02:10:31.856Z,4.50
2018-10-04T02:11:31.850Z,5.20
2018-10-04T02:12:31.812Z,5.40
2018-10-04T02:13:31.770Z,4.30
2018-10-04T02:14:31.735Z,5.00
2018-10-04T02:15:31.728Z,4.70
2018-10-04T02:16:31.692Z,4.80
2018-10-04T02:17:31.715Z,5.30
2018-10-04T02:18:31.624Z,5.00
2018-10-04T02:19:31.592Z,4.80
2018-10-04T02:20:31.656Z,5.30
2018-10-04T02:21:31.535Z,5.20
2018-10-04T02:22:31.494Z,5.20
2018-10-04T02:23:31.469Z,5.30
2018-10-04T02:24:31.455Z,5.00
2018-10-04T02:25:31.394Z,5.30
2018-10-04T02:26:31.387Z,5.10
2018-10-04T02:27:31.351Z,5.70
2018-10-04T02:28:31.325Z,4.90
2018-10-04T02:29:31.289Z,5.40
2018-10-04T02:30:31.252Z,4.70
2018-10-04T02:31:31.241Z,5.00
2018-10-04T02:32:31.223Z,4.70
2018-10-04T02:33:31.158Z,4.90
2018-10-04T02:34:31.196Z,5.60
2018-10-04T02:35:31.131Z,4.70
2018-10-04T02:36:31.126Z,4.80
2018-10-04T02:37:31.118Z,4.50
2018-10-04T02:38:31.008Z,5.00
2018-10-04T02:39:30.983Z,4.80
2018-10-04T02:40:31.150Z,4.80
2018-10-04T02:41:30.914Z,4.80
2018-10-04T02:42:30.921Z,5.40
2018-10-04T02:43:30.882Z,5.30
2018-10-04T02:44:30.996Z,5.20
2018-10-04T02:45:30.801Z,4.80
2018-10-04T02:46:30.782Z,5.30
2018-10-04T02:47:30.759Z,5.80
2018-10-04T02:48:30.753Z,5.70
2018-10-04T02:49:30.689Z,6.20
2018-10-04T02:50:30.745Z,5.90
2018-10-04T02:51:30.630Z,5.90
2018-10-04T02:52:30.592Z,6.30
2018-10-04T02:53:30.571Z,6.30
2018-10-04T02:54:30.538Z,6.30
2018-10-04T02:55:30.504Z,6.10
2018-10-04T02:56:30.482Z,6.40
2018-10-04T02:57:30.434Z,5.80
2018-10-04T02:58:30.431Z,6.10
2018-10-04T02:59:30.395Z,5.50
2018-10-04T03:00:30.352Z,5.70
2018-10-04T03:01:30.321Z,7.00
2018-10-04T03:02:30.314Z,6.40
2018-10-04T03:03:30.264Z,6.00
2018-10-04T03:04:30.236Z,5.90
2018-10-04T03:05:30.205Z,6.50
2018-10-04T03:06:30.176Z,6.50
2018-10-04T03:07:30.152Z,6.10
2018-10-04T03:08:30.091Z,6.00
2018-10-04T03:09:30.086Z,5.80
2018-10-04T03:10:30.092Z,6.00
2018-10-04T03:11:30.010Z,6.70
2018-10-04T03:12:30.001Z,6.30
2018-10-04T03:13:29.967Z,6.60
2018-10-04T03:14:29.932Z,7.10
2018-10-04T03:15:29.876Z,6.20
2018-10-04T03:16:30.274Z,6.10
2018-10-04T03:17:29.828Z,6.30
2018-10-04T03:18:29.790Z,5.50
2018-10-04T03:19:29.767Z,6.30
2018-10-04T03:20:29.767Z,6.60
2018-10-04T03:21:29.789Z,6.10
2018-10-04T03:22:29.787Z,5.90
2018-10-04T03:23:29.660Z,6.00
2018-10-04T03:24:29.621Z,5.70
2018-10-04T03:25:29.582Z,6.00
2018-10-04T03:26:29.567Z,5.90
2018-10-04T03:27:29.519Z,5.70
2018-10-04T03:28:29.505Z,5.70
2018-10-04T03:29:29.452Z,5.90
2018-10-04T03:30:29.435Z,5.30
2018-10-04T03:31:29.421Z,5.10
2018-10-04T03:32:29.376Z,5.20
2018-10-04T03:33:29.358Z,5.20
2018-10-04T03:34:29.314Z,5.20
2018-10-04T03:35:29.278Z,4.90
2018-10-04T03:36:29.247Z,4.40
2018-10-04T03:37:29.235Z,5.10
2018-10-04T03:38:29.226Z,4.90
2018-10-04T03:39:29.225Z,4.70
2018-10-04T03:40:29.146Z,5.10
2018-10-04T03:41:29.102Z,5.20
2018-10-04T03:42:29.068Z,4.60
2018-10-04T03:43:29.048Z,4.50
2018-10-04T03:44:29.035Z,4.70
2018-10-04T03:45:28.997Z,4.80
2018-10-04T03:46:29.024Z,4.50
2018-10-04T03:47:28.922Z,4.90
2018-10-04T03:48:29.033Z,4.30
2018-10-04T03:49:28.871Z,5.20
2018-10-04T03:50:28.843Z,4.80
2018-10-04T03:51:28.782Z,5.00
2018-10-04T03:52:28.757Z,4.70
2018-10-04T03:53:28.814Z,4.70
2018-10-04T03:54:28.818Z,4.30
2018-10-04T03:55:28.688Z,4.60
2018-10-04T03:56:28.652Z,4.30
2018-10-04T03:57:28.624Z,4.80
2018-10-04T03:58:28.567Z,4.10
2018-10-04T03:59:28.562Z,4.20
2018-10-04T04:00:28.508Z,4.80
2018-10-04T04:01:28.490Z,4.60
2018-10-04T04:02:28.460Z,4.00
2018-10-04T04:03:28.432Z,4.30
2018-10-04T04:04:28.417Z,4.70
2018-10-04T04:05:28.360Z,4.60
2018-10-04T04:06:28.324Z,4.50
2018-10-04T04:07:28.296Z,4.50
2018-10-04T04:08:28.291Z,4.00
2018-10-04T04:09:28.249Z,4.50
2018-10-04T04:10:28.278Z,4.30
2018-10-04T04:11:28.194Z,4.00
2018-10-04T04:12:28.226Z,4.10
2018-10-04T04:13:28.126Z,4.30
2018-10-04T04:14:28.097Z,5.10
2018-10-04T04:15:28.057Z,4.40
2018-10-04T04:16:28.025Z,4.20
2018-10-04T04:17:28.001Z,4.30
2018-10-04T04:18:27.994Z,4.20
2018-10-04T04:19:27.948Z,4.20
2018-10-04T04:20:28.226Z,4.20
2018-10-04T04:21:27.883Z,4.30
2018-10-04T04:22:27.931Z,4.70
2018-10-04T04:23:27.829Z,4.40
2018-10-04T04:24:27.823Z,4.20
2018-10-04T04:25:27.776Z,4.70
2018-10-04T04:26:27.925Z,4.10
2018-10-04T04:27:27.688Z,4.40
2018-10-04T04:28:27.686Z,4.40
2018-10-04T04:29:27.646Z,4.50
2018-10-04T04:30:27.603Z,3.90
2018-10-04T04:31:27.596Z,4.10
2018-10-04T04:32:27.663Z,4.00
2018-10-04T04:33:27.520Z,4.30
2018-10-04T04:34:27.494Z,4.00
2018-10-04T04:35:27.440Z,4.10
2018-10-04T04:36:27.438Z,4.40
2018-10-04T04:37:27.378Z,4.10
2018-10-04T04:38:27.427Z,4.20
2018-10-04T04:39:27.327Z,4.40
2018-10-04T04:40:27.301Z,4.30
2018-10-04T04:41:27.286Z,3.90
2018-10-04T04:42:27.225Z,4.40
2018-10-04T04:43:27.436Z,4.60
2018-10-04T04:44:27.189Z,4.10
2018-10-04T04:45:27.149Z,4.50
2018-10-04T04:46:27.215Z,4.00
2018-10-04T04:47:27.094Z,4.40
2018-10-04T04:48:27.070Z,5.00
2018-10-04T04:49:27.035Z,4.10
2018-10-04T04:50:27.012Z,4.10
2018-10-04T04:51:26.974Z,4.40
2018-10-04T04:52:26.974Z,4.20
2018-10-04T04:53:26.913Z,4.40
2018-10-04T04:54:27.023Z,4.30
2018-10-04T04:55:26.851Z,4.10
2018-10-04T04:56:26.815Z,5.00
2018-10-04T04:57:26.775Z,5.20
2018-10-04T04:58:26.737Z,4.60
2018-10-04T04:59:26.728Z,4.70
2018-10-04T05:00:26.705Z,4.20
2018-10-04T05:01:26.670Z,4.60
2018-10-04T05:02:26.632Z,4.40
2018-10-04T05:03:26.586Z,4.20
2018-10-04T05:04:26.569Z,4.40
2018-10-04T05:05:26.572Z,4.10
2018-10-04T05:06:26.553Z,4.40
2018-10-04T05:07:26.495Z,4.60
2018-10-04T05:08:26.442Z,4.40
2018-10-04T05:09:26.417Z,4.80
2018-10-04T05:10:26.394Z,4.80
2018-10-04T05:11:26.361Z,5.00
2018-10-04T05:12:26.337Z,5.10
2018-10-04T05:13:26.306Z,4.30
2018-10-04T05:14:26.250Z,4.60
2018-10-04T05:15:26.229Z,5.00
2018-10-04T05:16:26.206Z,5.10
2018-10-04T05:17:26.160Z,4.70
2018-10-04T05:18:26.155Z,5.30
2018-10-04T05:19:26.115Z,4.50
2018-10-04T05:20:26.071Z,5.20
2018-10-04T05:21:26.042Z,5.10
2018-10-04T05:22:26.070Z,4.60
2018-10-04T05:23:26.052Z,4.60
2018-10-04T05:24:25.953Z,5.00
2018-10-04T05:25:25.951Z,4.90
2018-10-04T05:26:26.345Z,4.50
2018-10-04T05:27:25.859Z,5.00
2018-10-04T05:28:25.832Z,4.80
2018-10-04T05:29:25.809Z,5.10
2018-10-04T05:30:25.800Z,6.00
2018-10-04T05:31:25.741Z,5.60
2018-10-04T05:32:25.810Z,4.90
2018-10-04T05:33:25.675Z,5.10
2018-10-04T05:34:25.675Z,5.60
2018-10-04T05:35:25.660Z,5.30
2018-10-04T05:36:25.602Z,4.90
2018-10-04T05:37:25.671Z,5.00
2018-10-04T05:38:25.517Z,5.40
2018-10-04T05:39:25.497Z,5.10
2018-10-04T05:40:25.495Z,4.90
2018-10-04T05:41:25.453Z,4.80
2018-10-04T05:42:25.418Z,5.20
2018-10-04T05:43:25.664Z,5.40
2018-10-04T05:44:25.336Z,5.30
2018-10-04T05:45:25.351Z,5.10
2018-10-04T05:46:25.339Z,5.10
2018-10-04T05:47:25.269Z,5.00
2018-10-04T05:48:25.243Z,5.30
2018-10-04T05:49:25.243Z,5.50
2018-10-04T05:50:25.259Z,5.40
2018-10-04T05:51:25.143Z,4.90
2018-10-04T05:52:25.092Z,5.30
2018-10-04T05:53:25.140Z,5.70
2018-10-04T05:54:25.048Z,5.60
2018-10-04T05:55:24.997Z,4.90
2018-10-04T05:56:24.970Z,5.20
2018-10-04T05:57:24.940Z,5.40
2018-10-04T05:58:24.926Z,5.40
2018-10-04T05:59:25.309Z,5.30
2018-10-04T06:00:24.861Z,5.10
2018-10-04T06:01:24.827Z,5.10
2018-10-04T06:02:24.836Z,5.10
2018-10-04T06:03:24.757Z,5.10
2018-10-04T06:04:24.720Z,5.00
2018-10-04T06:05:24.852Z,4.70
2018-10-04T06:06:24.658Z,5.00
2018-10-04T06:07:24.640Z,4.90
2018-10-04T06:08:24.665Z,5.60
2018-10-04T06:09:24.659Z,4.90
2018-10-04T06:10:24.568Z,4.80
2018-10-04T06:11:24.541Z,4.60
2018-10-04T06:12:24.489Z,5.70
2018-10-04T06:13:24.447Z,5.40
2018-10-04T06:14:24.419Z,5.20
2018-10-04T06:15:24.438Z,5.20
2018-10-04T06:16:24.373Z,5.70
2018-10-04T06:17:24.327Z,5.00
2018-10-04T06:18:24.312Z,5.20
2018-10-04T06:19:24.287Z,5.30
2018-10-04T06:20:24.227Z,5.10
2018-10-04T06:21:24.195Z,5.60
2018-10-04T06:22:24.189Z,5.30
2018-10-04T06:23:24.139Z,4.40
2018-10-04T06:24:24.127Z,5.50
2018-10-04T06:25:24.080Z,5.40
2018-10-04T06:26:24.068Z,5.60
2018-10-04T06:27:24.035Z,5.50
2018-10-04T06:28:24.002Z,5.30
2018-10-04T06:29:23.950Z,4.80
2018-10-04T06:30:23.927Z,5.20
2018-10-04T06:31:24.048Z,5.00
2018-10-04T06:32:23.868Z,5.70
2018-10-04T06:33:23.836Z,5.50
2018-10-04T06:34:23.809Z,5.00
2018-10-04T06:35:23.814Z,5.40
2018-10-04T06:36:23.734Z,5.40
2018-10-04T06:37:23.706Z,4.70
2018-10-04T06:38:23.685Z,5.20
2018-10-04T06:39:23.667Z,4.90
2018-10-04T06:40:23.665Z,5.40
2018-10-04T06:41:23.581Z,5.50
2018-10-04T06:42:23.576Z,4.90
2018-10-04T06:43:23.589Z,5.00
2018-10-04T06:44:23.549Z,5.10
2018-10-04T06:45:23.516Z,5.30
2018-10-04T06:46:23.435Z,5.50
2018-10-04T06:47:23.419Z,5.30
2018-10-04T06:48:23.729Z,5.20
2018-10-04T06:49:23.345Z,4.70
2018-10-04T06:50:23.334Z,5.40
2018-10-04T06:51:23.295Z,5.10
2018-10-04T06:52:23.262Z,4.90
2018-10-04T06:53:23.225Z,5.20
2018-10-04T06:54:23.266Z,5.90
2018-10-04T06:55:56.359Z,5.30
2018-10-04T06:56:23.137Z,4.50
2018-10-04T06:57:23.101Z,5.50
2018-10-04T06:58:23.086Z,5.00
2018-10-04T06:59:23.049Z,5.60
2018-10-04T07:00:22.995Z,5.70
2018-10-04T07:01:22.988Z,6.00
2018-10-04T07:02:22.950Z,5.10
2018-10-04T07:03:22.937Z,5.40
2018-10-04T07:04:23.297Z,5.20
2018-10-04T07:05:22.864Z,5.70
2018-10-04T07:06:22.817Z,5.50
2018-10-04T07:07:22.805Z,5.40
2018-10-04T07:08:22.787Z,5.00
2018-10-04T07:09:22.716Z,5.40
2018-10-04T07:10:22.951Z,4.90
2018-10-04T07:11:22.665Z,5.10
2018-10-04T07:12:22.720Z,5.50
2018-10-04T07:13:22.619Z,5.30
2018-10-04T07:14:22.579Z,5.30
2018-10-04T07:15:22.564Z,5.00
2018-10-04T07:16:22.513Z,5.60
2018-10-04T07:17:22.483Z,4.70
2018-10-04T07:18:22.460Z,4.90
2018-10-04T07:19:22.438Z,5.50
2018-10-04T07:20:22.389Z,4.80
2018-10-04T07:21:22.359Z,5.00
2018-10-04T07:22:22.317Z,4.90
2018-10-04T07:23:22.314Z,4.80
2018-10-04T07:24:22.258Z,4.90
2018-10-04T07:25:22.239Z,5.20
2018-10-04T07:26:22.191Z,5.50
2018-10-04T07:27:22.191Z,5.00
2018-10-04T07:28:22.151Z,5.00
2018-10-04T07:29:22.118Z,5.30
2018-10-04T07:30:22.102Z,4.90
2018-10-04T07:31:22.036Z,5.00
2018-10-04T07:32:22.007Z,5.10
2018-10-04T07:33:21.992Z,5.20
2018-10-04T07:34:21.957Z,5.10
2018-10-04T07:35:21.920Z,4.60
2018-10-04T07:36:22.056Z,5.10
2018-10-04T07:37:21.986Z,4.50
2018-10-04T07:38:21.838Z,5.20
2018-10-04T07:39:21.800Z,5.10
2018-10-04T07:40:21.762Z,4.60
2018-10-04T07:41:21.728Z,5.10
2018-10-04T07:42:21.810Z,5.20
2018-10-04T07:43:21.678Z,4.60
2018-10-04T07:44:21.661Z,5.20
2018-10-04T07:45:21.612Z,4.90
2018-10-04T07:46:21.585Z,5.10
2018-10-04T07:47:21.740Z,5.30
2018-10-04T07:48:21.521Z,4.80
2018-10-04T07:49:21.485Z,4.80
2018-10-04T07:50:21.562Z,4.80
2018-10-04T07:51:21.440Z,5.20
2018-10-04T07:52:21.390Z,4.50
2018-10-04T07:53:21.388Z,4.50
2018-10-04T07:54:21.328Z,4.50
2018-10-04T07:55:21.325Z,4.60
2018-10-04T07:56:21.326Z,4.80
2018-10-04T07:57:21.329Z,4.50
2018-10-04T07:58:21.219Z,4.50
2018-10-04T07:59:21.189Z,4.80
2018-10-04T08:00:21.215Z,5.10
2018-10-04T08:01:21.129Z,4.60
2018-10-04T08:02:21.092Z,4.50
2018-10-04T08:03:21.055Z,4.20
2018-10-04T08:04:21.038Z,4.30
2018-10-04T08:05:21.006Z,4.70
2018-10-04T08:06:21.227Z,4.30
2018-10-04T08:07:20.940Z,4.30
2018-10-04T08:08:21.050Z,4.30
2018-10-04T08:09:20.881Z,4.40
2018-10-04T08:10:20.837Z,4.10
2018-10-04T08:11:20.815Z,4.40
2018-10-04T08:12:20.776Z,4.60
2018-10-04T08:13:20.765Z,4.60
2018-10-04T08:14:20.732Z,5.00
2018-10-04T08:15:20.702Z,4.60
2018-10-04T08:16:20.679Z,4.70
2018-10-04T08:17:20.621Z,4.60
2018-10-04T08:18:20.615Z,4.50
2018-10-04T08:19:20.585Z,4.40
2018-10-04T08:20:20.537Z,5.00
2018-10-04T08:21:20.528Z,4.70
2018-10-04T08:22:20.741Z,4.90
2018-10-04T08:23:20.435Z,4.60
2018-10-04T08:24:20.443Z,4.50
2018-10-04T08:25:20.409Z,4.60
2018-10-04T08:26:20.348Z,4.60
2018-10-04T08:27:20.334Z,4.50
2018-10-04T08:28:20.361Z,4.40
2018-10-04T08:29:20.315Z,4.30
2018-10-04T08:30:20.503Z,4.60
2018-10-04T08:31:20.203Z,4.30
2018-10-04T08:32:20.193Z,4.50
2018-10-04T08:33:20.128Z,4.10
2018-10-04T08:34:20.109Z,4.60
2018-10-04T08:35:20.144Z,4.80
2018-10-04T08:36:20.447Z,4.40
2018-10-04T08:37:20.031Z,4.60
2018-10-04T08:38:19.978Z,4.30
2018-10-04T08:39:19.969Z,4.10
2018-10-04T08:40:19.913Z,4.70
2018-10-04T08:41:19.885Z,4.60
2018-10-04T08:42:20.028Z,4.30
2018-10-04T08:43:19.813Z,4.30
2018-10-04T08:44:19.777Z,4.50
2018-10-04T08:45:19.757Z,4.30
2018-10-04T08:46:19.728Z,4.40
2018-10-04T08:47:19.755Z,4.60
2018-10-04T08:48:19.853Z,4.10
2018-10-04T08:49:19.657Z,4.00
2018-10-04T08:50:19.608Z,4.00
2018-10-04T08:51:19.568Z,4.10
2018-10-04T08:52:19.557Z,4.70
2018-10-04T08:53:19.516Z,4.40
2018-10-04T08:54:19.496Z,4.40
2018-10-04T08:55:19.472Z,4.50
2018-10-04T08:56:19.460Z,4.90
2018-10-04T08:57:19.382Z,4.80
2018-10-04T08:58:19.350Z,4.70
2018-10-04T08:59:19.330Z,4.50
2018-10-04T09:00:19.287Z,4.70
2018-10-04T09:01:19.346Z,4.20
2018-10-04T09:02:19.227Z,4.10
2018-10-04T09:03:19.193Z,5.30
2018-10-04T09:04:19.182Z,4.70
2018-10-04T09:05:19.145Z,5.20
2018-10-04T09:06:19.100Z,4.90
2018-10-04T09:07:19.151Z,5.00
2018-10-04T09:08:19.049Z,5.10
2018-10-04T09:09:19.017Z,5.30
2018-10-04T09:10:18.974Z,4.70
2018-10-04T09:11:18.965Z,5.10
2018-10-04T09:12:18.920Z,4.90
2018-10-04T09:13:18.903Z,5.70
2018-10-04T09:14:18.869Z,5.20
2018-10-04T09:15:18.820Z,5.50
2018-10-04T09:16:18.796Z,5.10
2018-10-04T09:17:18.772Z,4.70
2018-10-04T09:18:18.748Z,4.50
2018-10-04T09:19:18.712Z,4.90
2018-10-04T09:20:18.679Z,4.60
2018-10-04T09:21:18.629Z,5.10
2018-10-04T09:22:18.604Z,5.30
2018-10-04T09:23:18.630Z,5.20
2018-10-04T09:24:18.549Z,4.40
2018-10-04T09:25:18.504Z,5.00
2018-10-04T09:26:18.484Z,4.70
2018-10-04T09:27:18.467Z,4.80
2018-10-04T09:28:18.444Z,5.10
2018-10-04T09:29:18.382Z,5.20
2018-10-04T09:30:18.377Z,5.20
2018-10-04T09:31:18.318Z,5.10
2018-10-04T09:32:18.311Z,5.40
2018-10-04T09:33:18.283Z,4.90
2018-10-04T09:34:18.234Z,4.50
2018-10-04T09:35:18.353Z,4.40
2018-10-04T09:36:18.187Z,5.10
2018-10-04T09:37:18.152Z,5.00
2018-10-04T09:38:18.137Z,5.10
2018-10-04T09:39:18.073Z,4.50
2018-10-04T09:40:18.056Z,5.20
2018-10-04T09:41:18.043Z,5.10
2018-10-04T09:42:18.007Z,4.80
2018-10-04T09:43:17.961Z,4.80
2018-10-04T09:44:17.937Z,4.90
2018-10-04T09:45:17.891Z,4.50
2018-10-04T09:46:17.958Z,5.30
2018-10-04T09:47:17.862Z,5.00
2018-10-04T09:48:17.811Z,4.60
2018-10-04T09:49:17.797Z,4.90
2018-10-04T09:50:17.804Z,4.70
2018-10-04T09:51:17.721Z,4.30
2018-10-04T09:52:17.684Z,4.60
2018-10-04T09:53:17.676Z,4.70
2018-10-04T09:54:17.640Z,4.00
2018-10-04T09:55:17.604Z,5.40
2018-10-04T09:56:17.568Z,5.30
2018-10-04T09:57:17.540Z,4.00
2018-10-04T09:58:17.496Z,4.50
2018-10-04T09:59:17.470Z,4.50
2018-10-04T10:00:17.435Z,5.00
2018-10-04T10:01:17.413Z,4.70
2018-10-04T10:02:17.360Z,4.50
2018-10-04T10:03:17.333Z,4.60
2018-10-04T10:04:17.305Z,4.40
2018-10-04T10:05:17.297Z,5.20
2018-10-04T10:06:17.246Z,5.20
2018-10-04T10:07:17.226Z,4.50
2018-10-04T10:08:17.184Z,4.30
2018-10-04T10:09:17.155Z,5.20
2018-10-04T10:10:17.170Z,4.50
2018-10-04T10:11:17.102Z,5.10
2018-10-04T10:12:17.050Z,4.70
2018-10-04T10:13:17.246Z,4.60
2018-10-04T10:14:17.011Z,4.70
2018-10-04T10:15:16.965Z,5.00
2018-10-04T10:16:16.932Z,5.10
2018-10-04T10:17:16.902Z,4.90
2018-10-04T10:18:16.875Z,4.80
2018-10-04T10:19:16.953Z,4.70
2018-10-04T10:20:16.831Z,5.00
2018-10-04T10:21:16.779Z,5.10
2018-10-04T10:22:16.773Z,5.00
2018-10-04T10:23:16.730Z,5.20
2018-10-04T10:24:16.682Z,5.20
2018-10-04T10:25:16.667Z,5.00
2018-10-04T10:26:16.627Z,4.60
2018-10-04T10:27:16.623Z,5.10
2018-10-04T10:28:16.566Z,4.70
2018-10-04T10:29:16.534Z,4.70
2018-10-04T10:30:16.608Z,4.70
2018-10-04T10:31:16.483Z,5.20
2018-10-04T10:32:16.443Z,4.60
2018-10-04T10:33:16.445Z,5.10
2018-10-04T10:34:16.395Z,4.70
2018-10-04T10:35:16.376Z,4.80
2018-10-04T10:36:16.329Z,4.80
2018-10-04T10:37:16.398Z,4.70
2018-10-04T10:38:16.255Z,5.10
2018-10-04T10:39:16.250Z,5.00
2018-10-04T10:40:16.447Z,5.00
2018-10-04T10:41:16.196Z,5.30
2018-10-04T10:42:16.152Z,4.70
2018-10-04T10:43:16.106Z,5.00
2018-10-04T10:44:16.088Z,4.40
2018-10-04T10:45:16.053Z,5.20
2018-10-04T10:46:16.145Z,5.20
2018-10-04T10:47:15.986Z,5.30
2018-10-04T10:48:15.990Z,4.70
2018-10-04T10:49:15.919Z,5.00
2018-10-04T10:50:15.890Z,4.80
2018-10-04T10:51:15.873Z,4.70
2018-10-04T10:52:16.049Z,4.90
2018-10-04T10:53:15.839Z,4.50
2018-10-04T10:54:15.774Z,4.60
2018-10-04T10:55:15.737Z,4.40
2018-10-04T10:56:15.715Z,4.30
2018-10-04T10:57:15.924Z,5.00
2018-10-04T10:58:15.686Z,4.80
2018-10-04T10:59:15.638Z,4.10
2018-10-04T11:00:15.618Z,4.70
2018-10-04T11:01:15.654Z,4.90
2018-10-04T11:02:15.535Z,4.50
2018-10-04T11:03:15.599Z,4.30
2018-10-04T11:04:15.466Z,5.00
2018-10-04T11:05:15.456Z,4.40
2018-10-04T11:06:15.426Z,5.20
2018-10-04T11:07:15.386Z,4.70
2018-10-04T11:08:15.401Z,5.10
2018-10-04T11:09:15.347Z,5.20
2018-10-04T11:10:15.295Z,5.10
2018-10-04T11:11:15.319Z,4.80
2018-10-04T11:12:15.241Z,5.70
2018-10-04T11:13:15.207Z,5.10
2018-10-04T11:14:15.163Z,4.90
2018-10-04T11:15:15.146Z,5.20
2018-10-04T11:16:15.113Z,4.40
2018-10-04T11:17:15.111Z,4.90
2018-10-04T11:18:15.056Z,4.60
2018-10-04T11:19:15.319Z,5.20
2018-10-04T11:20:14.989Z,4.80
2018-10-04T11:21:14.975Z,5.50
2018-10-04T11:22:14.988Z,5.20
2018-10-04T11:23:14.982Z,4.80
2018-10-04T11:24:14.896Z,5.20
2018-10-04T11:25:14.851Z,4.80
2018-10-04T11:26:14.825Z,4.60
2018-10-04T11:27:14.785Z,5.30
2018-10-04T11:28:14.778Z,4.60
2018-10-04T11:29:14.753Z,4.90
2018-10-04T11:30:14.688Z,5.70
2018-10-04T11:31:14.680Z,4.70
2018-10-04T11:32:14.638Z,5.20
2018-10-04T11:33:14.725Z,4.40
2018-10-04T11:34:14.594Z,5.20
2018-10-04T11:35:14.546Z,5.00
2018-10-04T11:36:14.694Z,5.20
2018-10-04T11:37:14.571Z,5.10
2018-10-04T11:38:14.475Z,4.80
2018-10-04T11:39:14.542Z,5.60
2018-10-04T11:40:14.399Z,4.90
2018-10-04T11:41:14.376Z,5.20
2018-10-04T11:42:14.374Z,5.20
2018-10-04T11:43:14.312Z,4.60
2018-10-04T11:44:14.291Z,4.80
2018-10-04T11:45:14.263Z,5.20
2018-10-04T11:46:14.222Z,5.10
2018-10-04T11:47:14.186Z,5.10
2018-10-04T11:48:14.179Z,5.00
2018-10-04T11:49:14.142Z,4.40
2018-10-04T11:50:14.126Z,4.20
2018-10-04T11:51:14.112Z,5.00
2018-10-04T11:52:14.232Z,4.40
2018-10-04T11:53:14.052Z,3.90
2018-10-04T11:54:14.003Z,4.50
2018-10-04T11:55:13.987Z,4.70
2018-10-04T11:56:13.973Z,4.80
2018-10-04T11:57:13.927Z,4.10
2018-10-04T11:58:14.264Z,4.40
2018-10-04T11:59:13.958Z,4.40
2018-10-04T12:00:13.837Z,4.40
2018-10-04T12:01:13.837Z,4.30
2018-10-04T12:02:13.777Z,4.50
2018-10-04T12:03:13.776Z,4.00
2018-10-04T12:04:13.967Z,4.20
2018-10-04T12:05:13.703Z,4.20
2018-10-04T12:06:13.665Z,4.20
2018-10-04T12:07:13.643Z,4.20
2018-10-04T12:08:13.606Z,4.10
2018-10-04T12:09:13.623Z,3.90
2018-10-04T12:10:13.598Z,4.00
2018-10-04T12:11:13.537Z,4.00
2018-10-04T12:12:13.533Z,4.20
2018-10-04T12:13:13.513Z,3.90
2018-10-04T12:14:13.480Z,4.00
2018-10-04T12:15:13.454Z,3.40
2018-10-04T12:16:13.404Z,4.10
2018-10-04T12:17:13.401Z,4.30
2018-10-04T12:18:13.380Z,3.80
2018-10-04T12:19:13.354Z,4.20
2018-10-04T12:20:13.315Z,3.80
2018-10-04T12:21:13.355Z,3.40
2018-10-04T12:22:13.261Z,3.80
2018-10-04T12:23:13.285Z,3.70
2018-10-04T12:24:13.228Z,4.00
2018-10-04T12:25:13.284Z,3.80
2018-10-04T12:26:13.192Z,4.00
2018-10-04T12:27:13.164Z,3.70
2018-10-04T12:28:13.165Z,4.20
2018-10-04T12:29:13.122Z,4.30
2018-10-04T12:30:13.259Z,4.00
2018-10-04T12:31:13.133Z,3.40
2018-10-04T12:32:13.156Z,4.10
2018-10-04T12:33:13.028Z,3.20
2018-10-04T12:34:12.998Z,3.80
2018-10-04T12:35:12.971Z,3.70
2018-10-04T12:36:13.171Z,3.50
2018-10-04T12:37:12.927Z,4.00
2018-10-04T12:38:12.911Z,3.80
2018-10-04T12:39:12.891Z,3.70
2018-10-04T12:40:12.862Z,3.90
2018-10-04T12:41:12.844Z,3.70
2018-10-04T12:42:12.813Z,3.50
2018-10-04T12:43:12.797Z,3.60
2018-10-04T12:44:12.775Z,3.80
2018-10-04T12:45:12.772Z,4.30
2018-10-04T12:46:12.729Z,3.60
2018-10-04T12:47:12.714Z,3.70
2018-10-04T12:48:12.698Z,3.30
2018-10-04T12:49:12.686Z,3.40
2018-10-04T12:50:12.645Z,3.60
2018-10-04T12:51:12.621Z,3.40
2018-10-04T12:52:12.600Z,3.00
2018-10-04T12:53:12.595Z,3.10
2018-10-04T12:54:12.599Z,3.20
2018-10-04T12:55:12.562Z,3.40
2018-10-04T12:56:12.542Z,3.60
2018-10-04T12:57:12.515Z,3.40
2018-10-04T12:58:12.489Z,3.50
2018-10-04T12:59:12.467Z,3.40
2018-10-04T13:00:12.459Z,3.30
2018-10-04T13:01:12.422Z,3.90
2018-10-04T13:02:12.421Z,3.50
2018-10-04T13:04:12.364Z,3.10
2018-10-04T13:05:12.351Z,3.30
2018-10-04T13:06:12.336Z,3.30
2018-10-04T13:07:12.432Z,3.70
2018-10-04T13:08:12.288Z,3.70
2018-10-04T13:09:12.270Z,3.80
2018-10-04T13:10:12.252Z,3.70
2018-10-04T13:11:12.237Z,3.60
2018-10-04T13:12:12.216Z,3.80
2018-10-04T13:13:12.539Z,3.70
2018-10-04T13:14:12.179Z,3.20
2018-10-04T13:15:12.158Z,3.50
2018-10-04T13:16:12.144Z,3.40
2018-10-04T13:17:12.119Z,4.30
2018-10-04T13:18:12.109Z,3.90
2018-10-04T13:19:12.333Z,3.80
2018-10-04T13:20:12.195Z,3.70